Time;durP1;ratioP1;P1;durP2;ratioP2;P2;SDS_P1;SDS_P2;PMS_P1;PMS_P2;Temp;Humidity;BMP_temperature;BMP_pressure;BME280_temperature;BME280_humidity;BME280_pressure;Samples;Min_cycle;Max_cycle;Signal;HPM_P1;HPM_P2
2022/09/02 00:01:36;;;;;;;12.83;12.13;;;19.30;28.20;;;;;;5053422;28;20409;-42
2022/09/02 00:04:06;;;;;;;12.60;12.07;;;19.40;28.20;;;;;;5053944;28;20414;-48
2022/09/02 00:06:32;;;;;;;12.77;12.17;;;19.40;28.10;;;;;;5053934;28;20762;-54
2022/09/02 00:08:58;;;;;;;12.53;11.73;;;19.40;28.00;;;;;;5071224;28;20457;-55
2022/09/02 00:11:28;;;;;;;11.73;11.23;;;19.40;28.00;;;;;;5053616;28;20409;-53
2022/09/02 00:13:54;;;;;;;12.10;11.50;;;19.40;27.90;;;;;;5053672;28;20406;-54
2022/09/02 00:16:22;;;;;;;12.57;12.00;;;19.40;27.80;;;;;;5053155;28;20406;-51
2022/09/02 00:18:48;;;;;;;12.60;12.00;;;19.40;28.10;;;;;;5053344;28;20416;-48
2022/09/02 00:21:14;;;;;;;13.13;12.50;;;19.30;28.00;;;;;;5053227;28;20421;-46
2022/09/02 00:23:42;;;;;;;12.70;11.80;;;19.20;28.80;;;;;;5053426;28;20528;-54
2022/09/02 00:26:08;;;;;;;12.03;11.43;;;19.20;28.60;;;;;;5056895;28;20441;-56
2022/09/02 00:28:34;;;;;;;11.60;11.00;;;19.20;28.50;;;;;;5057220;28;21016;-52
2022/09/02 00:31:00;;;;;;;12.47;11.83;;;19.20;28.50;;;;;;5057438;28;20179;-55
2022/09/02 00:33:26;;;;;;;12.63;12.03;;;19.20;28.50;;;;;;5057335;28;20424;-55
2022/09/02 00:35:51;;;;;;;11.60;11.00;;;19.30;28.40;;;;;;5057123;28;20430;-54
2022/09/02 00:38:17;;;;;;;13.00;12.40;;;19.30;28.40;;;;;;5057043;28;20186;-54
2022/09/02 00:40:48;;;;;;;12.60;11.97;;;19.30;28.40;;;;;;5056544;28;20417;-52
2022/09/02 00:43:41;;;;;;;12.80;12.20;;;19.30;28.50;;;;;;5057236;28;20421;-48
2022/09/02 00:46:07;;;;;;;12.93;12.13;;;19.20;28.50;;;;;;5056770;28;20417;-47
2022/09/02 00:48:36;;;;;;;12.77;12.17;;;19.30;28.50;;;;;;5056354;28;20457;-43
2022/09/02 00:51:03;;;;;;;13.50;12.80;;;19.30;28.50;;;;;;5056928;28;20410;-45
2022/09/02 00:53:29;;;;;;;13.00;12.40;;;19.30;28.40;;;;;;5056332;28;20464;-46
2022/09/02 00:55:55;;;;;;;12.57;11.77;;;19.30;28.50;;;;;;5056717;28;20500;-50
2022/09/02 00:58:24;;;;;;;12.83;12.13;;;19.30;28.60;;;;;;5074731;28;20413;-47
2022/09/02 01:00:56;;;;;;;12.60;12.00;;;19.20;28.50;;;;;;5056255;28;20417;-49
2022/09/02 01:03:23;;;;;;;13.30;12.57;;;19.20;28.70;;;;;;5056602;28;20420;-42
2022/09/02 01:05:51;;;;;;;12.50;12.00;;;19.20;28.40;;;;;;5055982;28;20474;-45
2022/09/02 01:08:23;;;;;;;13.10;12.50;;;19.10;29.30;;;;;;5073994;28;20449;-47
2022/09/02 01:10:48;;;;;;;13.90;13.30;;;19.10;28.90;;;;;;5056597;28;20909;-41
2022/09/02 01:13:18;;;;;;;13.87;13.17;;;19.10;28.90;;;;;;5056130;28;20497;-47
2022/09/02 01:15:52;;;;;;;13.33;12.63;;;18.80;29.40;;;;;;5056223;28;20198;-46
2022/09/02 01:18:23;;;;;;;13.60;12.90;;;18.60;30.40;;;;;;5056292;28;20459;-48
2022/09/02 01:20:50;;;;;;;13.23;12.73;;;18.50;30.50;;;;;;5055634;28;20420;-42
2022/09/02 01:23:17;;;;;;;12.67;12.07;;;18.50;31.00;;;;;;5055410;28;20413;-45
2022/09/02 01:25:44;;;;;;;13.80;13.13;;;18.60;30.10;;;;;;5055842;28;20470;-43
2022/09/02 01:28:13;;;;;;;13.83;13.13;;;18.60;29.80;;;;;;5055444;28;20456;-43
2022/09/02 01:30:42;;;;;;;13.60;13.00;;;18.70;29.80;;;;;;5055833;28;20584;-43
2022/09/02 01:33:09;;;;;;;13.13;12.53;;;18.80;29.50;;;;;;5055302;28;20959;-44
2022/09/02 01:35:35;;;;;;;13.70;13.07;;;18.80;29.10;;;;;;5054825;28;20482;-44
2022/09/02 01:38:02;;;;;;;12.87;12.27;;;18.80;29.50;;;;;;5054843;28;20410;-48
2022/09/02 01:40:30;;;;;;;14.30;12.93;;;18.80;29.40;;;;;;5055958;28;20932;-46
2022/09/02 01:43:00;;;;;;;13.47;12.87;;;18.90;29.60;;;;;;5055499;28;20445;-45
2022/09/02 01:45:27;;;;;;;13.40;12.80;;;18.70;29.50;;;;;;5055346;28;20409;-47
2022/09/02 01:47:53;;;;;;;14.50;13.60;;;18.50;30.20;;;;;;5055048;28;20479;-46
2022/09/02 01:50:18;;;;;;;12.90;12.30;;;18.30;31.60;;;;;;5055250;28;20414;-47
2022/09/02 01:52:44;;;;;;;13.33;12.73;;;18.00;31.70;;;;;;5055823;28;20632;-44
2022/09/02 01:55:10;;;;;;;12.87;12.27;;;18.00;31.90;;;;;;5055455;28;20258;-43
2022/09/02 01:57:35;;;;;;;13.67;13.07;;;17.90;31.80;;;;;;5055659;28;20179;-43
2022/09/02 02:00:03;;;;;;;13.23;12.63;;;18.00;32.00;;;;;;5073308;28;20573;-43
2022/09/02 02:02:29;;;;;;;13.70;13.10;;;18.20;31.20;;;;;;5054891;28;20171;-44
2022/09/02 02:04:55;;;;;;;13.00;12.40;;;18.30;30.00;;;;;;5055029;28;20428;-47
2022/09/02 02:07:22;;;;;;;12.87;12.20;;;18.40;29.40;;;;;;5055106;28;20425;-44
2022/09/02 02:09:48;;;;;;;12.87;12.27;;;18.50;29.00;;;;;;5055021;28;20209;-47
2022/09/02 02:12:15;;;;;;;12.70;12.20;;;18.50;29.00;;;;;;5054813;28;20488;-46
2022/09/02 02:14:40;;;;;;;14.43;13.27;;;18.60;29.00;;;;;;5072581;28;20409;-45
2022/09/02 02:17:06;;;;;;;13.20;12.60;;;18.60;28.60;;;;;;5054659;28;20443;-43
2022/09/02 02:19:33;;;;;;;12.80;12.20;;;18.70;28.80;;;;;;5055079;28;20548;-48
2022/09/02 02:21:59;;;;;;;13.53;12.73;;;18.70;29.00;;;;;;5054840;28;20183;-49
2022/09/02 02:24:25;;;;;;;13.13;12.53;;;18.70;29.10;;;;;;5054981;28;20555;-43
2022/09/02 02:26:50;;;;;;;13.53;12.93;;;18.70;29.10;;;;;;5054762;28;20172;-43
2022/09/02 02:29:16;;;;;;;12.37;11.93;;;18.70;29.10;;;;;;5054591;28;20213;-46
2022/09/02 02:31:42;;;;;;;13.30;12.70;;;18.70;29.10;;;;;;5054551;28;20167;-48
2022/09/02 02:34:09;;;;;;;12.83;12.03;;;18.70;28.80;;;;;;5054181;28;20414;-43
2022/09/02 02:36:35;;;;;;;12.80;12.20;;;18.70;28.40;;;;;;5053929;28;20884;-47
2022/09/02 02:39:03;;;;;;;12.27;11.67;;;18.70;28.20;;;;;;5054634;28;20496;-45
2022/09/02 02:41:30;;;;;;;11.50;11.07;;;18.70;27.70;;;;;;5054020;28;20437;-48
2022/09/02 02:43:55;;;;;;;11.97;11.50;;;18.70;27.60;;;;;;5053894;28;20460;-43
2022/09/02 02:46:21;;;;;;;13.20;12.50;;;18.70;27.50;;;;;;5054192;28;20453;-44
2022/09/02 02:48:47;;;;;;;12.63;12.13;;;18.70;27.20;;;;;;5053692;28;20290;-47
2022/09/02 02:51:13;;;;;;;12.20;11.70;;;18.70;27.40;;;;;;5054043;28;20201;-45
2022/09/02 02:53:39;;;;;;;12.13;11.63;;;18.70;27.30;;;;;;5054253;28;20174;-50
2022/09/02 02:56:06;;;;;;;12.20;11.70;;;18.70;27.30;;;;;;5053940;28;20817;-50
2022/09/02 02:58:32;;;;;;;12.20;11.70;;;18.70;27.20;;;;;;5053256;28;20452;-48
2022/09/02 03:00:59;;;;;;;13.20;12.60;;;18.60;27.30;;;;;;5053789;28;20840;-48
2022/09/02 03:03:25;;;;;;;13.30;12.70;;;18.60;27.60;;;;;;5053751;28;20203;-42
2022/09/02 03:05:51;;;;;;;12.90;12.30;;;18.60;27.50;;;;;;5053523;28;20420;-44
2022/09/02 03:08:21;;;;;;;13.67;13.07;;;18.60;27.40;;;;;;5054040;28;20473;-42
2022/09/02 03:10:53;;;;;;;13.03;12.43;;;18.60;27.30;;;;;;5054261;28;20631;-43
2022/09/02 03:13:20;;;;;;;12.93;12.20;;;18.60;27.00;;;;;;5053379;28;20414;-46
2022/09/02 03:15:47;;;;;;;13.17;12.67;;;18.40;27.70;;;;;;5053637;28;20463;-44
2022/09/02 03:18:13;;;;;;;13.43;12.83;;;18.30;27.90;;;;;;5053443;28;20435;-42
2022/09/02 03:20:39;;;;;;;13.43;12.83;;;18.40;28.00;;;;;;5053409;28;20406;-44
2022/09/02 03:23:05;;;;;;;12.20;11.70;;;18.40;28.00;;;;;;5053556;28;20859;-45
2022/09/02 03:25:33;;;;;;;12.50;12.00;;;18.40;27.90;;;;;;5053580;28;20413;-42
2022/09/02 03:28:00;;;;;;;13.33;12.53;;;18.40;27.90;;;;;;5070672;28;20472;-49
2022/09/02 03:30:28;;;;;;;12.43;11.93;;;18.50;28.00;;;;;;5052794;28;20458;-43
2022/09/02 03:32:56;;;;;;;12.10;11.60;;;18.40;27.70;;;;;;5053419;28;20445;-48
2022/09/02 03:35:22;;;;;;;13.50;12.90;;;18.50;27.80;;;;;;5052655;28;20434;-46
2022/09/02 03:37:49;;;;;;;12.90;12.30;;;18.50;27.80;;;;;;5052882;28;20418;-45
2022/09/02 03:40:21;;;;;;;13.20;12.53;;;18.50;28.00;;;;;;5052761;28;20931;-43
2022/09/02 03:42:47;;;;;;;13.30;12.73;;;18.40;28.00;;;;;;5053402;28;20501;-54
2022/09/02 03:45:14;;;;;;;13.30;12.70;;;18.40;28.40;;;;;;5052569;28;20402;-53
2022/09/02 03:47:49;;;;;;;13.20;12.70;;;18.40;28.80;;;;;;5052658;28;20787;-56
2022/09/02 03:50:16;;;;;;;13.87;13.27;;;18.40;28.60;;;;;;5052658;28;20423;-54
2022/09/02 03:52:42;;;;;;;13.90;13.20;;;18.40;28.50;;;;;;5052828;28;20445;-53
2022/09/02 03:55:08;;;;;;;13.50;12.80;;;18.40;28.40;;;;;;5053420;28;20453;-54
2022/09/02 03:57:35;;;;;;;13.33;12.83;;;18.40;28.20;;;;;;5052936;28;20203;-52
2022/09/02 04:00:07;;;;;;;14.33;13.73;;;18.40;28.20;;;;;;5051742;28;20414;-53
2022/09/02 04:02:33;;;;;;;13.60;13.10;;;18.40;28.30;;;;;;5053185;28;20410;-45
2022/09/02 04:04:58;;;;;;;14.30;13.70;;;18.40;28.50;;;;;;5052399;28;20771;-44
2022/09/02 04:07:24;;;;;;;15.63;14.97;;;18.40;28.30;;;;;;5053490;28;20981;-44
2022/09/02 04:09:49;;;;;;;15.23;14.63;;;18.40;28.50;;;;;;5052431;28;20209;-44
2022/09/02 04:12:15;;;;;;;15.63;14.93;;;18.40;28.80;;;;;;5052660;28;20278;-45
2022/09/02 04:14:41;;;;;;;15.30;14.50;;;18.40;28.90;;;;;;5052469;28;20175;-50
2022/09/02 04:17:07;;;;;;;13.87;13.27;;;18.40;28.50;;;;;;5049491;28;20174;-52
2022/09/02 04:19:33;;;;;;;13.77;13.07;;;18.30;28.80;;;;;;5049850;28;20270;-50
2022/09/02 04:21:58;;;;;;;15.43;14.73;;;18.30;29.30;;;;;;5052432;28;20274;-51
2022/09/02 04:24:24;;;;;;;14.47;13.93;;;18.30;28.80;;;;;;5052047;28;20179;-54
2022/09/02 04:26:50;;;;;;;14.87;14.27;;;18.30;28.80;;;;;;5051500;28;20232;-52
2022/09/02 04:29:17;;;;;;;14.83;14.13;;;18.30;28.80;;;;;;5050566;28;20287;-57
2022/09/02 04:31:42;;;;;;;13.80;13.30;;;18.30;28.80;;;;;;5047831;28;20221;-54
2022/09/02 04:34:09;;;;;;;15.30;14.70;;;18.20;28.70;;;;;;5041583;28;20410;-55
2022/09/02 04:36:34;;;;;;;14.80;14.00;;;18.20;28.70;;;;;;5070661;28;20164;-54
2022/09/02 04:39:00;;;;;;;14.90;14.20;;;18.20;28.70;;;;;;5051039;28;20424;-55
2022/09/02 04:41:29;;;;;;;14.80;14.10;;;18.20;29.00;;;;;;5049947;28;20423;-52
2022/09/02 04:43:56;;;;;;;14.60;14.03;;;18.20;28.80;;;;;;5051899;28;20574;-54
2022/09/02 04:46:22;;;;;;;15.30;14.60;;;18.20;28.70;;;;;;5051585;28;20428;-50
2022/09/02 04:48:48;;;;;;;14.90;13.97;;;18.20;28.70;;;;;;5050636;28;20459;-50
2022/09/02 04:51:17;;;;;;;13.63;12.93;;;18.00;29.50;;;;;;5068825;28;20414;-51
2022/09/02 04:53:44;;;;;;;14.07;13.30;;;18.00;29.70;;;;;;5050983;28;20198;-50
2022/09/02 04:56:13;;;;;;;13.57;13.07;;;18.00;29.50;;;;;;5049713;28;20403;-53
2022/09/02 04:58:41;;;;;;;13.37;12.87;;;18.00;29.30;;;;;;5049244;28;20497;-54
2022/09/02 05:01:08;;;;;;;14.27;13.67;;;18.00;29.10;;;;;;5051150;28;20424;-50
2022/09/02 05:03:35;;;;;;;14.13;13.50;;;18.00;28.60;;;;;;5048598;28;20441;-51
2022/09/02 05:06:04;;;;;;;14.60;13.80;;;18.00;28.60;;;;;;5050125;28;20847;-50
2022/09/02 05:08:30;;;;;;;15.80;14.77;;;18.10;28.90;;;;;;5050988;28;20883;-52
2022/09/02 05:10:56;;;;;;;15.30;14.60;;;18.10;28.70;;;;;;5052974;28;20440;-53
2022/09/02 05:13:23;;;;;;;14.67;14.07;;;18.20;28.70;;;;;;5054975;28;20819;-51
2022/09/02 05:15:49;;;;;;;15.23;14.50;;;18.20;28.80;;;;;;5055569;28;20417;-50
2022/09/02 05:18:15;;;;;;;15.47;14.57;;;18.20;28.70;;;;;;5054936;28;20512;-46
2022/09/02 05:20:44;;;;;;;15.20;14.60;;;18.20;28.60;;;;;;5055107;28;20584;-48
2022/09/02 05:23:11;;;;;;;14.83;14.13;;;18.20;28.30;;;;;;5050581;28;20976;-53
2022/09/02 05:25:38;;;;;;;14.70;14.00;;;18.20;28.20;;;;;;5035169;28;20501;-51
2022/09/02 05:28:07;;;;;;;13.53;12.93;;;18.30;28.20;;;;;;5035617;28;20458;-54
2022/09/02 05:30:34;;;;;;;13.53;12.93;;;18.30;27.90;;;;;;5037275;28;20407;-54
2022/09/02 05:33:00;;;;;;;14.27;13.67;;;18.30;28.00;;;;;;5055354;28;20855;-54
2022/09/02 05:35:27;;;;;;;13.83;13.23;;;18.20;28.00;;;;;;5055422;28;20437;-57
2022/09/02 05:37:52;;;;;;;13.70;13.20;;;18.20;28.00;;;;;;5054721;28;20565;-55
2022/09/02 05:40:18;;;;;;;14.30;13.60;;;18.20;27.60;;;;;;5053572;28;20417;-56
2022/09/02 05:42:44;;;;;;;14.40;13.60;;;18.20;27.70;;;;;;5053420;28;20178;-57
2022/09/02 05:45:10;;;;;;;14.83;14.13;;;18.30;27.80;;;;;;5053046;28;20214;-54
2022/09/02 05:47:36;;;;;;;15.00;14.33;;;18.30;27.90;;;;;;5052976;28;20179;-55
2022/09/02 05:50:03;;;;;;;15.80;14.90;;;18.30;27.70;;;;;;5052594;28;20465;-56
2022/09/02 05:52:29;;;;;;;15.47;14.77;;;18.20;28.10;;;;;;5052466;28;20172;-57
2022/09/02 05:54:55;;;;;;;14.27;13.77;;;18.20;28.20;;;;;;5052568;28;20441;-56
2022/09/02 05:57:21;;;;;;;14.30;13.60;;;18.20;28.30;;;;;;5053647;28;21003;-57
2022/09/02 05:59:48;;;;;;;14.17;13.60;;;18.10;28.00;;;;;;5054613;28;20513;-53
2022/09/02 06:02:16;;;;;;;13.60;13.10;;;17.90;28.50;;;;;;5054440;28;20414;-53
2022/09/02 06:04:44;;;;;;;14.60;13.80;;;18.00;28.60;;;;;;5054691;28;20516;-56
2022/09/02 06:07:12;;;;;;;14.30;13.60;;;17.90;28.50;;;;;;5071511;28;20906;-51
2022/09/02 06:09:39;;;;;;;15.20;14.57;;;18.00;28.60;;;;;;5053582;28;20461;-55
2022/09/02 06:12:07;;;;;;;15.20;14.50;;;18.00;28.90;;;;;;5054209;28;20941;-56
2022/09/02 06:14:33;;;;;;;14.80;14.20;;;18.10;28.30;;;;;;5053788;28;20447;-54
2022/09/02 06:16:59;;;;;;;14.47;13.87;;;18.20;28.20;;;;;;5054579;28;20413;-49
2022/09/02 06:19:27;;;;;;;15.67;14.97;;;18.20;28.00;;;;;;5054707;28;20418;-55
2022/09/02 06:21:53;;;;;;;13.70;13.07;;;18.00;27.20;;;;;;5053770;28;20711;-45
2022/09/02 06:24:20;;;;;;;15.17;14.50;;;17.90;27.70;;;;;;5050712;28;20904;-43
2022/09/02 06:26:46;;;;;;;15.33;14.50;;;17.80;27.70;;;;;;5054428;28;20846;-46
2022/09/02 06:29:12;;;;;;;14.83;14.23;;;17.90;27.90;;;;;;5055320;28;20544;-43
2022/09/02 06:31:45;;;;;;;15.67;15.03;;;18.00;27.90;;;;;;5055676;28;20420;-48
2022/09/02 06:34:12;;;;;;;13.90;13.30;;;18.00;27.90;;;;;;5055169;28;20414;-47
2022/09/02 06:36:39;;;;;;;15.67;14.97;;;18.00;27.50;;;;;;5054857;28;20418;-46
2022/09/02 06:39:05;;;;;;;15.20;14.20;;;17.80;27.60;;;;;;5054985;28;20963;-49
2022/09/02 06:41:33;;;;;;;16.03;15.03;;;17.90;27.60;;;;;;5054746;28;20417;-49
2022/09/02 06:44:03;;;;;;;14.90;14.30;;;17.90;27.80;;;;;;5055066;28;20176;-48
2022/09/02 06:46:34;;;;;;;14.10;13.40;;;17.80;27.80;;;;;;5055144;28;20784;-49
2022/09/02 06:49:01;;;;;;;13.93;13.23;;;17.80;28.50;;;;;;5054943;28;20593;-46
2022/09/02 06:51:34;;;;;;;13.13;12.43;;;17.90;28.50;;;;;;5054387;28;20448;-47
2022/09/02 06:54:01;;;;;;;14.67;13.60;;;18.00;28.60;;;;;;5054958;28;20418;-46
2022/09/02 06:56:27;;;;;;;13.00;12.40;;;18.20;28.00;;;;;;5051249;28;20557;-47
2022/09/02 06:58:53;;;;;;;14.27;13.37;;;18.20;27.00;;;;;;5051710;28;20812;-48
2022/09/02 07:01:20;;;;;;;13.70;13.10;;;18.20;27.50;;;;;;5052144;28;20803;-56
2022/09/02 07:06:42;;;;;;;14.03;13.23;;;18.20;27.90;;;;;;5071943;28;20511;-50
2022/09/02 07:09:10;;;;;;;13.87;13.27;;;18.40;27.30;;;;;;5050749;28;20453;-43
2022/09/02 07:11:36;;;;;;;14.03;13.40;;;18.30;26.70;;;;;;5054332;28;20421;-43
2022/09/02 07:14:03;;;;;;;14.20;13.60;;;18.30;27.30;;;;;;5054350;28;20500;-44
2022/09/02 07:16:33;;;;;;;13.47;12.87;;;18.30;27.20;;;;;;5053876;28;20421;-43
2022/09/02 07:19:00;;;;;;;14.70;14.00;;;18.30;26.90;;;;;;5054503;28;20418;-50
2022/09/02 07:21:27;;;;;;;14.43;13.93;;;18.40;26.80;;;;;;5054024;28;21014;-48
2022/09/02 07:23:54;;;;;;;14.67;13.90;;;18.40;26.80;;;;;;5054492;28;20770;-44
2022/09/02 07:26:21;;;;;;;14.50;13.80;;;18.40;26.70;;;;;;5053752;28;20418;-43
2022/09/02 07:28:46;;;;;;;14.30;13.63;;;18.40;27.00;;;;;;5043874;28;20461;-49
2022/09/02 07:31:15;;;;;;;14.83;14.13;;;18.50;27.00;;;;;;5039381;28;20944;-45
2022/09/02 07:33:43;;;;;;;14.50;13.83;;;18.60;26.40;;;;;;5042709;28;20541;-44
2022/09/02 07:36:10;;;;;;;14.87;14.27;;;18.60;26.40;;;;;;5049720;28;20437;-46
2022/09/02 07:38:36;;;;;;;14.07;13.43;;;18.60;26.40;;;;;;5034316;28;20471;-45
2022/09/02 07:41:03;;;;;;;14.87;14.23;;;18.70;26.40;;;;;;5045832;28;20456;-49
2022/09/02 07:43:30;;;;;;;15.40;14.33;;;18.80;26.30;;;;;;5053912;28;20421;-49
2022/09/02 07:45:59;;;;;;;14.80;14.20;;;18.80;25.80;;;;;;5054024;28;20541;-53
2022/09/02 07:48:26;;;;;;;14.43;13.83;;;18.80;26.00;;;;;;5053748;28;20492;-51
2022/09/02 07:50:52;;;;;;;13.90;13.30;;;18.80;26.10;;;;;;5053981;28;20536;-50
2022/09/02 07:53:18;;;;;;;13.77;13.03;;;18.90;26.00;;;;;;5053732;28;20788;-53
2022/09/02 07:55:46;;;;;;;13.30;12.80;;;19.00;25.60;;;;;;5039408;28;20178;-49
2022/09/02 07:58:13;;;;;;;12.90;12.40;;;19.00;25.30;;;;;;5033751;28;20434;-48
2022/09/02 08:00:40;;;;;;;13.70;13.20;;;19.10;25.30;;;;;;5033725;28;20414;-48
2022/09/02 08:03:06;;;;;;;12.20;11.70;;;19.20;25.10;;;;;;5045717;28;20807;-50
2022/09/02 08:05:34;;;;;;;13.30;12.80;;;19.30;24.70;;;;;;5033847;28;20445;-48
2022/09/02 08:08:00;;;;;;;13.83;12.93;;;19.30;24.50;;;;;;5033786;28;20414;-50
2022/09/02 08:10:28;;;;;;;13.40;12.70;;;19.40;24.40;;;;;;5037605;28;20421;-46
2022/09/02 08:12:56;;;;;;;13.10;12.60;;;19.40;24.10;;;;;;5053091;28;20417;-46
2022/09/02 08:15:22;;;;;;;14.20;13.43;;;19.50;24.30;;;;;;5053494;28;20428;-46
2022/09/02 08:17:48;;;;;;;13.80;13.20;;;19.60;23.60;;;;;;5053710;28;20406;-42
2022/09/02 08:20:16;;;;;;;12.70;12.30;;;19.70;23.30;;;;;;5053457;28;20417;-48
2022/09/02 08:22:42;;;;;;;12.90;12.40;;;19.70;23.10;;;;;;5053780;28;20268;-47
2022/09/02 08:25:09;;;;;;;12.27;11.87;;;19.70;23.00;;;;;;5051477;28;20446;-51
2022/09/02 08:27:36;;;;;;;13.10;12.60;;;19.80;22.80;;;;;;5052563;28;20841;-61
2022/09/02 08:30:06;;;;;;;13.13;12.63;;;19.90;21.60;;;;;;5050582;28;20486;-51
2022/09/02 08:32:31;;;;;;;13.53;12.93;;;20.00;21.40;;;;;;5051731;28;20414;-48
2022/09/02 08:35:01;;;;;;;12.80;12.30;;;20.10;21.00;;;;;;5052955;28;20855;-46
2022/09/02 08:37:28;;;;;;;12.50;12.00;;;20.00;21.50;;;;;;5052788;28;20179;-49
2022/09/02 08:39:53;;;;;;;13.07;12.57;;;20.20;21.30;;;;;;5052875;28;20413;-45
2022/09/02 08:42:27;;;;;;;12.00;11.60;;;20.30;20.80;;;;;;5053052;28;20421;-48
2022/09/02 08:45:07;;;;;;;12.60;12.20;;;20.20;21.20;;;;;;5050408;28;20204;-49
2022/09/02 08:47:35;;;;;;;12.40;11.83;;;20.30;20.20;;;;;;5054589;28;20421;-48
2022/09/02 08:50:09;;;;;;;11.03;10.63;;;20.40;19.70;;;;;;5056675;28;20972;-47
2022/09/02 08:52:40;;;;;;;11.77;11.37;;;20.50;19.90;;;;;;5056947;28;20425;-51
2022/09/02 08:55:16;;;;;;;11.30;10.80;;;20.50;19.80;;;;;;5057145;28;20852;-48
2022/09/02 08:57:43;;;;;;;11.70;11.30;;;20.50;19.40;;;;;;5057073;28;20417;-46
2022/09/02 09:00:09;;;;;;;12.77;11.97;;;20.60;19.90;;;;;;5074133;28;20453;-50
2022/09/02 09:02:42;;;;;;;11.60;11.20;;;20.70;19.10;;;;;;5055783;28;20513;-51
2022/09/02 09:05:20;;;;;;;11.87;11.43;;;20.80;18.60;;;;;;5057256;28;20777;-50
2022/09/02 09:07:58;;;;;;;11.93;11.53;;;20.90;18.90;;;;;;5056010;28;20424;-50
2022/09/02 09:10:27;;;;;;;12.00;11.30;;;20.90;18.20;;;;;;5056494;28;20925;-50
2022/09/02 09:13:17;;;;;;;12.13;11.63;;;21.00;18.10;;;;;;5057200;28;20430;-49
2022/09/02 09:16:02;;;;;;;11.40;11.00;;;21.20;17.70;;;;;;5057193;28;20412;-52
2022/09/02 09:18:42;;;;;;;12.37;11.40;;;21.40;17.70;;;;;;5044857;28;20429;-53
2022/09/02 09:21:08;;;;;;;12.50;11.93;;;21.70;16.40;;;;;;5036874;28;20417;-51
2022/09/02 09:23:37;;;;;;;11.90;11.50;;;22.00;16.20;;;;;;5037220;28;20429;-51
2022/09/02 09:26:15;;;;;;;11.67;11.27;;;22.10;16.20;;;;;;5037090;28;20862;-55
2022/09/02 09:28:46;;;;;;;11.30;10.90;;;22.30;15.90;;;;;;5036994;28;20453;-51
2022/09/02 09:31:26;;;;;;;11.20;10.80;;;22.50;15.10;;;;;;5036674;28;20406;-51
2022/09/02 09:33:56;;;;;;;11.43;11.03;;;22.50;15.00;;;;;;5036696;28;20422;-50
2022/09/02 09:36:40;;;;;;;11.90;11.40;;;22.60;14.90;;;;;;5036822;28;20457;-51
2022/09/02 09:39:27;;;;;;;11.53;11.13;;;22.70;14.90;;;;;;5036703;28;20414;-52
2022/09/02 09:42:00;;;;;;;11.10;10.80;;;22.80;13.70;;;;;;5036655;28;20407;-53
2022/09/02 09:44:36;;;;;;;11.87;11.47;;;22.90;14.30;;;;;;5051945;28;20414;-50
2022/09/02 09:47:07;;;;;;;11.30;10.90;;;23.00;13.90;;;;;;5055781;28;20479;-48
2022/09/02 09:49:33;;;;;;;12.33;11.83;;;23.10;13.20;;;;;;5053808;28;20541;-50
2022/09/02 09:51:59;;;;;;;12.20;11.50;;;23.20;12.90;;;;;;5055439;28;20831;-50
2022/09/02 09:54:26;;;;;;;11.70;11.20;;;23.30;12.30;;;;;;5055742;28;20426;-48
2022/09/02 09:56:53;;;;;;;12.47;11.60;;;23.20;12.30;;;;;;5054234;28;20707;-47
2022/09/02 09:59:36;;;;;;;11.17;10.77;;;23.20;12.20;;;;;;5055877;28;20795;-50
2022/09/02 10:02:02;;;;;;;11.60;11.17;;;23.10;12.40;;;;;;5055359;28;20410;-50
2022/09/02 10:04:32;;;;;;;12.00;11.13;;;23.30;12.60;;;;;;5052978;28;20866;-48
2022/09/02 10:06:58;;;;;;;12.00;11.60;;;23.30;11.80;;;;;;5055346;28;20171;-48
2022/09/02 10:09:34;;;;;;;12.00;11.50;;;23.50;11.60;;;;;;5054991;28;20819;-50
2022/09/02 10:12:06;;;;;;;12.20;11.70;;;23.40;11.00;;;;;;5052088;28;20172;-50
2022/09/02 10:14:38;;;;;;;12.13;11.53;;;23.50;11.60;;;;;;5035598;28;20406;-50
2022/09/02 10:17:46;;;;;;;12.00;11.50;;;23.50;11.00;;;;;;5053219;28;20418;-50
2022/09/02 10:20:18;;;;;;;11.73;11.33;;;23.70;10.10;;;;;;5055041;28;20413;-54
2022/09/02 10:22:56;;;;;;;11.57;11.20;;;23.60;10.50;;;;;;5055779;28;20406;-48
2022/09/02 10:25:41;;;;;;;10.77;10.43;;;23.60;9.90;;;;;;5051510;28;20799;-54
2022/09/02 10:28:44;;;;;;;10.90;10.60;;;23.60;10.00;;;;;;5035373;28;20414;-53
2022/09/02 10:31:27;;;;;;;10.80;10.50;;;23.70;9.60;;;;;;5034950;28;20459;-48
2022/09/02 10:34:11;;;;;;;11.20;10.80;;;23.70;9.20;;;;;;5035258;28;20811;-50
2022/09/02 10:36:57;;;;;;;11.43;10.93;;;23.60;9.40;;;;;;5035383;28;20609;-54
2022/09/02 10:39:26;;;;;;;10.67;10.20;;;23.60;9.60;;;;;;5034855;28;20472;-48
2022/09/02 10:42:02;;;;;;;11.13;10.73;;;23.60;9.20;;;;;;5018792;28;20568;-50
2022/09/02 10:44:40;;;;;;;11.13;10.67;;;23.60;9.60;;;;;;5035156;28;20778;-50
2022/09/02 10:47:17;;;;;;;11.30;10.90;;;23.70;9.40;;;;;;5035057;28;20425;-51
2022/09/02 10:49:52;;;;;;;12.77;12.20;;;23.60;9.00;;;;;;5046526;28;20845;-48
2022/09/02 10:52:59;;;;;;;12.87;12.20;;;23.60;9.40;;;;;;5054793;28;20960;-47
2022/09/02 10:55:49;;;;;;;11.67;11.20;;;23.60;9.20;;;;;;5044342;28;20598;-51
2022/09/02 10:58:40;;;;;;;11.60;11.20;;;23.70;9.10;;;;;;5054763;28;20505;-50
2022/09/02 11:01:10;;;;;;;11.23;10.90;;;23.80;9.30;;;;;;5054450;28;20436;-45
2022/09/02 11:04:02;;;;;;;11.20;10.80;;;23.80;9.20;;;;;;5054751;28;20417;-44
2022/09/02 11:06:49;;;;;;;11.97;11.53;;;23.80;8.90;;;;;;5017481;28;20516;-47
2022/09/02 11:09:39;;;;;;;13.47;12.83;;;23.90;8.60;;;;;;5053737;28;20560;-43
2022/09/02 11:12:21;;;;;;;12.00;11.60;;;23.80;8.40;;;;;;5046108;28;20927;-43
2022/09/02 11:15:11;;;;;;;12.10;11.60;;;23.80;8.50;;;;;;5034894;28;20871;-48
2022/09/02 11:18:16;;;;;;;11.73;11.33;;;23.80;8.60;;;;;;5039392;28;20410;-45
2022/09/02 11:21:03;;;;;;;11.80;11.30;;;23.80;8.90;;;;;;5050510;28;20414;-50
2022/09/02 11:23:38;;;;;;;10.97;10.47;;;23.80;8.60;;;;;;5039050;28;20426;-53
2022/09/02 11:26:28;;;;;;;12.37;11.37;;;23.90;9.70;;;;;;5051993;28;20474;-50
2022/09/02 11:28:59;;;;;;;11.47;11.10;;;23.80;8.10;;;;;;5050707;28;20831;-49
2022/09/02 11:31:35;;;;;;;11.93;11.47;;;23.70;8.20;;;;;;5033991;28;20834;-50
2022/09/02 11:34:11;;;;;;;11.80;11.30;;;23.70;8.40;;;;;;5033682;28;20927;-53
2022/09/02 11:36:39;;;;;;;12.00;11.53;;;23.90;8.60;;;;;;5034275;28;20429;-54
2022/09/02 11:39:14;;;;;;;10.83;10.43;;;23.90;8.60;;;;;;5034509;28;20517;-55
2022/09/02 11:42:00;;;;;;;11.83;11.33;;;24.00;8.10;;;;;;5034290;28;20425;-55
2022/09/02 11:44:44;;;;;;;11.13;10.73;;;23.90;7.90;;;;;;5051706;28;20548;-53
2022/09/02 11:47:42;;;;;;;12.23;11.73;;;24.00;7.70;;;;;;5054096;28;20413;-46
2022/09/02 11:50:30;;;;;;;12.03;11.53;;;23.90;7.50;;;;;;4999825;28;20473;-44
2022/09/02 11:53:14;;;;;;;11.23;10.80;;;23.90;8.30;;;;;;5053688;28;20425;-46
2022/09/02 11:55:46;;;;;;;11.83;11.43;;;23.90;8.50;;;;;;5053878;28;20772;-45
2022/09/02 11:58:31;;;;;;;11.17;10.77;;;23.90;8.20;;;;;;5053561;28;20472;-53
2022/09/02 12:01:00;;;;;;;11.90;11.43;;;24.00;8.30;;;;;;5053295;28;20421;-51
2022/09/02 12:03:30;;;;;;;10.60;10.30;;;23.90;8.70;;;;;;5050638;28;20414;-53
2022/09/02 12:06:05;;;;;;;11.27;10.77;;;24.10;8.30;;;;;;5053189;28;20444;-52
2022/09/02 12:08:33;;;;;;;10.90;10.40;;;24.10;8.10;;;;;;5052973;28;20468;-51
2022/09/02 12:11:02;;;;;;;10.73;10.30;;;24.10;8.50;;;;;;5049928;28;20418;-50
2022/09/02 12:13:44;;;;;;;10.97;10.37;;;24.00;8.10;;;;;;5033798;28;20835;-50
2022/09/02 12:16:14;;;;;;;10.70;10.30;;;24.00;8.50;;;;;;5033980;28;20776;-54
2022/09/02 12:18:43;;;;;;;10.67;10.17;;;24.10;8.30;;;;;;5033641;28;20418;-53
2022/09/02 12:21:14;;;;;;;10.53;10.10;;;24.10;8.10;;;;;;5035632;28;21001;-55
2022/09/02 12:23:54;;;;;;;10.30;9.90;;;24.10;8.30;;;;;;5037888;28;20453;-55
2022/09/02 12:26:21;;;;;;;10.30;10.00;;;24.10;8.50;;;;;;5037729;28;20914;-54
2022/09/02 12:28:48;;;;;;;10.80;10.40;;;24.10;8.80;;;;;;5037746;28;20785;-51
2022/09/02 12:31:17;;;;;;;9.70;9.40;;;24.20;8.10;;;;;;5037643;28;20769;-54
2022/09/02 12:33:48;;;;;;;9.83;9.53;;;24.20;8.20;;;;;;5037697;28;20468;-54
2022/09/02 12:36:36;;;;;;;10.70;10.30;;;24.10;7.90;;;;;;5037657;28;20466;-55
2022/09/02 12:39:23;;;;;;;10.60;10.20;;;24.20;7.70;;;;;;5037303;28;20422;-54
2022/09/02 12:42:21;;;;;;;10.67;10.27;;;24.10;8.30;;;;;;5037337;28;20410;-55
2022/09/02 12:45:09;;;;;;;10.83;10.53;;;24.10;7.90;;;;;;5035143;28;20790;-54
2022/09/02 12:48:01;;;;;;;11.33;10.83;;;24.20;8.10;;;;;;5055388;28;20555;-50